createdAt,value
2023-10-05T00:02:10.348Z,16.71
2023-10-05T00:04:44.957Z,16.97
2023-10-05T00:07:21.280Z,16.93
2023-10-05T00:09:50.031Z,16.86
2023-10-05T00:12:21.899Z,16.89
2023-10-05T00:15:14.399Z,16.84
2023-10-05T00:17:43.298Z,16.85
2023-10-05T00:20:23.300Z,16.44
2023-10-05T00:22:52.949Z,16.62
2023-10-05T00:25:24.867Z,16.63
2023-10-05T00:27:55.283Z,16.51
2023-10-05T00:30:25.368Z,16.20
2023-10-05T00:32:58.045Z,16.31
2023-10-05T00:35:28.539Z,16.55
2023-10-05T00:38:09.462Z,16.35
2023-10-05T00:40:44.198Z,16.11
2023-10-05T00:43:25.604Z,16.54
2023-10-05T00:45:59.250Z,16.60
2023-10-05T00:48:36.098Z,16.61
2023-10-05T00:51:13.962Z,16.50
2023-10-05T00:53:43.584Z,15.89
2023-10-05T00:56:13.893Z,15.92
2023-10-05T00:58:45.966Z,15.23
2023-10-05T01:01:24.607Z,15.98
2023-10-05T01:04:20.421Z,15.63
2023-10-05T01:06:56.469Z,15.54
2023-10-05T01:09:42.091Z,15.72
2023-10-05T01:12:23.426Z,15.73
2023-10-05T01:14:54.018Z,15.40
2023-10-05T01:17:27.743Z,15.53
2023-10-05T01:19:59.330Z,15.59
2023-10-05T01:22:34.090Z,15.64
2023-10-05T01:25:06.442Z,15.24
2023-10-05T01:27:35.250Z,15.82
2023-10-05T01:30:05.198Z,15.79
2023-10-05T01:32:34.416Z,15.67
2023-10-05T01:35:11.276Z,15.70
2023-10-05T01:37:41.176Z,15.70
2023-10-05T01:40:21.165Z,15.67
2023-10-05T01:42:53.024Z,15.87
2023-10-05T01:45:26.372Z,15.40
2023-10-05T01:47:55.822Z,15.96
2023-10-05T01:50:24.860Z,15.52
2023-10-05T01:53:02.753Z,15.38
2023-10-05T01:55:35.944Z,15.65
2023-10-05T01:58:05.138Z,15.82
2023-10-05T02:00:39.386Z,15.77
2023-10-05T02:03:09.329Z,15.04
2023-10-05T02:05:38.584Z,15.01
2023-10-05T02:08:08.075Z,15.16
2023-10-05T02:10:41.690Z,15.26
2023-10-05T02:13:13.963Z,15.45
2023-10-05T02:15:43.093Z,15.67
2023-10-05T02:18:23.582Z,15.78
2023-10-05T02:20:57.795Z,15.94
2023-10-05T02:23:30.154Z,15.53
2023-10-05T02:26:06.746Z,15.85
2023-10-05T02:28:36.489Z,15.42
2023-10-05T02:31:10.205Z,15.71
2023-10-05T02:33:42.174Z,15.75
2023-10-05T02:36:18.480Z,15.62
2023-10-05T02:38:55.148Z,15.58
2023-10-05T02:41:39.542Z,15.69
2023-10-05T02:44:21.119Z,15.66
2023-10-05T02:46:49.852Z,15.16
2023-10-05T02:49:20.223Z,14.95
2023-10-05T02:51:49.163Z,14.85
2023-10-05T02:54:20.515Z,14.99
2023-10-05T02:56:50.900Z,14.49
2023-10-05T02:59:22.008Z,14.49
2023-10-05T03:01:51.416Z,14.92
2023-10-05T03:04:23.168Z,14.87
2023-10-05T03:06:54.455Z,14.81
2023-10-05T03:09:25.432Z,14.78
2023-10-05T03:11:56.320Z,14.91
2023-10-05T03:14:24.844Z,15.08
2023-10-05T03:16:58.596Z,15.01
2023-10-05T03:19:28.227Z,15.08
2023-10-05T03:21:59.649Z,14.92
2023-10-05T03:24:28.201Z,14.77
2023-10-05T03:26:58.052Z,14.73
2023-10-05T03:29:27.067Z,14.82
2023-10-05T03:32:03.993Z,14.34
2023-10-05T03:34:33.860Z,14.71
2023-10-05T03:37:05.552Z,14.70
2023-10-05T03:39:40.336Z,14.46
2023-10-05T03:42:14.679Z,14.74
2023-10-05T03:44:46.103Z,14.77
2023-10-05T03:47:14.657Z,14.60
2023-10-05T03:49:57.662Z,14.73
2023-10-05T03:52:31.329Z,14.50
2023-10-05T03:55:05.953Z,14.84
2023-10-05T03:57:36.229Z,14.67
2023-10-05T04:00:19.755Z,14.61
2023-10-05T04:02:49.020Z,13.85
2023-10-05T04:05:19.705Z,14.50
2023-10-05T04:07:49.376Z,14.66
2023-10-05T04:10:22.720Z,14.63
2023-10-05T04:12:54.585Z,14.38
2023-10-05T04:15:23.173Z,14.64
2023-10-05T04:17:52.005Z,14.54
2023-10-05T04:20:28.459Z,14.64
2023-10-05T04:22:56.967Z,14.78
2023-10-05T04:25:25.791Z,14.78
2023-10-05T04:27:57.040Z,14.77
2023-10-05T04:30:25.703Z,14.81
2023-10-05T04:32:54.868Z,14.86
2023-10-05T04:35:27.646Z,14.60
2023-10-05T04:37:56.496Z,14.80
2023-10-05T04:40:26.715Z,14.74
2023-10-05T04:43:00.517Z,14.97
2023-10-05T04:45:29.610Z,15.07
2023-10-05T04:48:00.608Z,15.14
2023-10-05T04:50:29.541Z,15.00
2023-10-05T04:53:02.175Z,14.71
2023-10-05T04:55:34.288Z,15.27
2023-10-05T04:58:22.778Z,15.22
2023-10-05T05:01:17.014Z,15.24
2023-10-05T05:03:57.656Z,16.59
2023-10-05T05:06:28.599Z,17.12
2023-10-05T05:08:57.218Z,16.90
2023-10-05T05:11:26.961Z,17.40
2023-10-05T05:13:56.746Z,17.83
2023-10-05T05:16:25.491Z,17.97
2023-10-05T05:18:56.971Z,18.12
2023-10-05T05:21:25.559Z,17.70
2023-10-05T05:23:54.135Z,17.97
2023-10-05T05:26:22.632Z,18.10
2023-10-05T05:28:51.138Z,18.42
2023-10-05T05:31:22.568Z,18.59
2023-10-05T05:33:51.282Z,17.63
2023-10-05T05:36:19.767Z,17.14
2023-10-05T05:38:50.737Z,17.25
2023-10-05T05:41:21.030Z,17.92
2023-10-05T05:43:50.103Z,18.29
2023-10-05T05:46:19.176Z,18.30
2023-10-05T05:48:54.210Z,18.25
2023-10-05T05:51:25.013Z,18.72
2023-10-05T05:53:54.061Z,18.56
2023-10-05T05:56:30.409Z,18.20
2023-10-05T05:58:59.426Z,18.93
2023-10-05T06:01:28.381Z,19.29
2023-10-05T06:03:58.629Z,19.23
2023-10-05T06:06:27.428Z,19.51
2023-10-05T06:08:58.165Z,19.80
2023-10-05T06:11:26.555Z,20.14
2023-10-05T06:13:55.007Z,20.36
2023-10-05T06:16:23.538Z,20.24
2023-10-05T06:18:52.940Z,20.68
2023-10-05T06:21:22.921Z,20.81
2023-10-05T06:23:52.112Z,20.22
2023-10-05T06:26:20.725Z,19.98
2023-10-05T06:28:49.713Z,19.63
2023-10-05T06:31:18.267Z,19.76
2023-10-05T06:33:47.878Z,20.39
2023-10-05T06:36:21.247Z,20.94
2023-10-05T06:38:56.178Z,20.92
2023-10-05T06:41:24.697Z,20.75
2023-10-05T06:43:53.198Z,20.82
2023-10-05T06:46:28.155Z,20.68
2023-10-05T06:48:58.712Z,21.64
2023-10-05T06:51:28.543Z,22.19
2023-10-05T06:53:59.476Z,22.27
2023-10-05T06:56:29.009Z,22.44
2023-10-05T06:58:57.678Z,22.87
2023-10-05T07:01:26.294Z,22.95
2023-10-05T07:03:56.958Z,23.87
2023-10-05T07:06:26.248Z,24.10
2023-10-05T07:08:54.707Z,23.81
2023-10-05T07:11:25.773Z,24.21
2023-10-05T07:13:54.502Z,24.44
2023-10-05T07:16:22.928Z,24.78
2023-10-05T07:18:51.595Z,24.74
2023-10-05T07:21:21.839Z,24.91
2023-10-05T07:23:50.229Z,24.91
2023-10-05T07:26:18.841Z,25.25
2023-10-05T07:28:49.672Z,25.65
2023-10-05T07:31:18.322Z,25.53
2023-10-05T07:33:47.086Z,25.18
2023-10-05T07:36:16.215Z,25.89
2023-10-05T07:38:45.684Z,26.01
2023-10-05T07:41:14.225Z,26.71
2023-10-05T07:43:46.149Z,26.88
2023-10-05T07:46:19.114Z,27.61
2023-10-05T07:48:48.380Z,27.59
2023-10-05T07:51:17.810Z,27.32
2023-10-05T07:53:46.691Z,27.65
2023-10-05T07:56:15.365Z,27.39
2023-10-05T07:58:46.274Z,28.20
2023-10-05T08:01:16.380Z,28.44
2023-10-05T08:03:46.526Z,28.27
2023-10-05T08:06:16.749Z,28.25
2023-10-05T08:08:45.299Z,28.36
2023-10-05T08:11:17.217Z,29.07
2023-10-05T08:13:45.847Z,28.36
2023-10-05T08:16:14.963Z,29.12
2023-10-05T08:18:44.636Z,29.18
2023-10-05T08:21:14.684Z,29.14
2023-10-05T08:23:43.877Z,29.74
2023-10-05T08:26:14.120Z,29.62
2023-10-05T08:28:42.590Z,29.76
2023-10-05T08:31:12.660Z,30.88
2023-10-05T08:33:41.250Z,31.32
2023-10-05T08:36:14.184Z,30.93
2023-10-05T08:38:45.286Z,30.86
2023-10-05T08:41:16.384Z,30.52
2023-10-05T08:43:48.222Z,30.19
2023-10-05T08:46:21.092Z,29.98
2023-10-05T08:48:50.796Z,31.01
2023-10-05T08:51:26.180Z,31.53
2023-10-05T08:53:59.368Z,31.58
2023-10-05T08:56:27.888Z,32.19
2023-10-05T08:58:56.248Z,31.55
2023-10-05T09:01:27.114Z,31.76
2023-10-05T09:04:02.809Z,31.77
2023-10-05T09:06:33.755Z,31.77
2023-10-05T09:09:16.327Z,31.87
2023-10-05T09:11:44.998Z,31.81
2023-10-05T09:14:19.458Z,31.94
2023-10-05T09:16:56.970Z,31.98
2023-10-05T09:19:31.302Z,32.10
2023-10-05T09:22:14.096Z,32.19
2023-10-05T09:24:44.988Z,33.24
2023-10-05T09:27:19.765Z,33.98
2023-10-05T09:29:48.934Z,33.91
2023-10-05T09:32:27.073Z,33.74
2023-10-05T09:34:58.032Z,33.62
2023-10-05T09:37:31.087Z,34.12
2023-10-05T09:40:02.316Z,34.15
2023-10-05T09:42:36.401Z,34.57
2023-10-05T09:45:14.309Z,34.07
2023-10-05T09:47:44.119Z,34.48
2023-10-05T09:50:14.654Z,35.48
2023-10-05T09:52:47.580Z,34.80
2023-10-05T09:55:19.204Z,34.65
2023-10-05T09:57:56.032Z,35.29
2023-10-05T10:00:32.010Z,35.94
2023-10-05T10:03:02.575Z,35.31
2023-10-05T10:05:37.806Z,35.58
2023-10-05T10:08:14.621Z,35.28
2023-10-05T10:10:52.981Z,35.40
2023-10-05T10:13:24.569Z,35.05
2023-10-05T10:15:58.322Z,34.83
2023-10-05T10:18:38.847Z,35.16
2023-10-05T10:21:14.389Z,36.13
2023-10-05T10:23:53.274Z,36.34
2023-10-05T10:26:25.857Z,35.51
2023-10-05T10:29:09.170Z,36.42
2023-10-05T10:31:44.806Z,35.11
2023-10-05T10:34:21.159Z,35.03
2023-10-05T10:36:53.736Z,36.13
2023-10-05T10:39:26.185Z,37.26
2023-10-05T10:42:03.054Z,35.48
2023-10-05T10:44:44.804Z,35.74
2023-10-05T10:47:13.657Z,35.50
2023-10-05T10:49:42.432Z,36.00
2023-10-05T10:52:20.123Z,35.95
2023-10-05T10:55:02.952Z,36.79
2023-10-05T10:57:32.904Z,35.51
2023-10-05T11:00:15.094Z,35.65
2023-10-05T11:02:43.875Z,34.84
2023-10-05T11:05:18.445Z,34.36
2023-10-05T11:07:50.714Z,35.23
2023-10-05T11:10:23.101Z,36.05
2023-10-05T11:12:55.637Z,35.79
2023-10-05T11:15:31.873Z,35.85
2023-10-05T11:18:05.835Z,35.94
2023-10-05T11:20:37.907Z,35.18
2023-10-05T11:23:12.202Z,35.07
2023-10-05T11:25:54.606Z,34.83
2023-10-05T11:28:32.062Z,35.41
2023-10-05T11:31:24.187Z,36.02
2023-10-05T11:34:43.685Z,37.58
2023-10-05T11:36:41.219Z,36.76
2023-10-05T11:39:22.668Z,37.09
2023-10-05T11:41:53.865Z,35.64
2023-10-05T11:44:25.421Z,35.86
2023-10-05T11:46:55.340Z,36.81
2023-10-05T11:49:32.667Z,37.26
2023-10-05T11:52:01.973Z,37.67
2023-10-05T11:54:32.432Z,37.35
2023-10-05T11:57:06.227Z,36.04
2023-10-05T11:59:37.143Z,36.01
2023-10-05T12:02:07.281Z,36.61
2023-10-05T12:04:36.672Z,36.33
2023-10-05T12:07:06.385Z,35.13
2023-10-05T12:09:36.379Z,33.90
2023-10-05T12:12:11.868Z,33.64
2023-10-05T12:14:40.950Z,34.31
2023-10-05T12:17:10.000Z,33.91
2023-10-05T12:19:40.566Z,34.18
2023-10-05T12:22:15.380Z,35.23
2023-10-05T12:24:43.896Z,35.51
2023-10-05T12:27:22.161Z,35.16
2023-10-05T12:29:51.310Z,35.04
2023-10-05T12:32:19.792Z,35.48
2023-10-05T12:34:49.553Z,36.02
2023-10-05T12:37:19.281Z,35.66
2023-10-05T12:39:48.612Z,35.69
2023-10-05T12:42:21.639Z,35.64
2023-10-05T12:44:52.633Z,35.48
2023-10-05T12:47:21.675Z,34.59
2023-10-05T12:49:50.379Z,33.85
2023-10-05T12:52:18.950Z,33.38
2023-10-05T12:54:47.555Z,34.29
2023-10-05T12:57:20.943Z,34.67
2023-10-05T12:59:51.444Z,35.48
2023-10-05T13:02:20.392Z,35.41
2023-10-05T13:04:49.023Z,35.81
2023-10-05T13:07:23.855Z,35.80
2023-10-05T13:10:01.482Z,35.19
2023-10-05T13:12:32.987Z,35.33
2023-10-05T13:15:05.535Z,34.94
2023-10-05T13:17:39.414Z,35.12
2023-10-05T13:20:16.225Z,35.36
2023-10-05T13:22:46.260Z,35.22
2023-10-05T13:25:15.226Z,34.52
2023-10-05T13:27:45.403Z,34.37
2023-10-05T13:30:23.911Z,33.48
2023-10-05T13:32:59.395Z,32.32
2023-10-05T13:35:31.321Z,30.81
2023-10-05T13:38:07.855Z,30.87
2023-10-05T13:40:37.689Z,30.33
2023-10-05T13:43:08.645Z,30.69
2023-10-05T13:45:38.276Z,30.35
2023-10-05T13:48:10.335Z,30.50
2023-10-05T13:50:39.210Z,30.88
2023-10-05T13:53:08.093Z,31.12
2023-10-05T13:55:36.590Z,31.89
2023-10-05T13:58:05.371Z,31.46
2023-10-05T14:00:35.319Z,30.75
2023-10-05T14:03:04.589Z,31.21
2023-10-05T14:05:33.133Z,31.52
2023-10-05T14:08:04.095Z,31.01
2023-10-05T14:10:32.829Z,30.98
2023-10-05T14:13:01.491Z,30.75
2023-10-05T14:15:31.654Z,30.91
2023-10-05T14:18:01.769Z,30.83
2023-10-05T14:20:30.287Z,30.04
2023-10-05T14:22:58.776Z,29.15
2023-10-05T14:25:28.192Z,29.17
2023-10-05T14:27:56.638Z,29.14
2023-10-05T14:30:26.076Z,28.72
2023-10-05T14:32:55.799Z,28.82
2023-10-05T14:35:28.290Z,28.75
2023-10-05T14:37:56.661Z,28.91
2023-10-05T14:40:28.147Z,28.72
2023-10-05T14:42:58.196Z,28.90
2023-10-05T14:45:28.412Z,28.51
2023-10-05T14:48:03.395Z,28.10
2023-10-05T14:50:34.754Z,28.34
2023-10-05T14:53:06.124Z,27.49
2023-10-05T14:55:35.091Z,28.02
2023-10-05T14:58:09.508Z,27.94
2023-10-05T15:00:38.882Z,27.85
2023-10-05T15:03:07.461Z,27.85
2023-10-05T15:05:38.407Z,27.46
2023-10-05T15:08:09.763Z,27.33
2023-10-05T15:10:38.295Z,27.07
2023-10-05T15:13:07.784Z,27.39
2023-10-05T15:15:36.373Z,27.21
2023-10-05T15:18:05.326Z,26.91
2023-10-05T15:20:33.935Z,26.83
2023-10-05T15:23:03.826Z,26.60
2023-10-05T15:25:34.734Z,26.39
2023-10-05T15:28:03.328Z,26.22
2023-10-05T15:30:32.325Z,26.10
2023-10-05T15:33:00.821Z,25.79
2023-10-05T15:35:29.333Z,26.11
2023-10-05T15:37:58.070Z,25.94
2023-10-05T15:40:32.546Z,25.84
2023-10-05T15:43:01.837Z,25.72
2023-10-05T15:45:30.210Z,25.91
2023-10-05T15:47:59.262Z,25.55
2023-10-05T15:50:30.027Z,25.53
2023-10-05T15:53:02.147Z,24.84
2023-10-05T15:55:32.047Z,25.32
2023-10-05T15:58:00.768Z,25.39
2023-10-05T16:00:32.857Z,25.45
2023-10-05T16:03:02.528Z,25.54
2023-10-05T16:05:34.362Z,25.52
2023-10-05T16:08:06.851Z,25.02
2023-10-05T16:10:38.117Z,25.41
2023-10-05T16:13:09.123Z,25.18
2023-10-05T16:15:40.168Z,24.78
2023-10-05T16:18:11.748Z,24.40
2023-10-05T16:20:42.520Z,24.28
2023-10-05T16:23:13.007Z,24.22
2023-10-05T16:25:43.500Z,23.99
2023-10-05T16:28:11.968Z,23.90
2023-10-05T16:30:40.625Z,24.23
2023-10-05T16:33:11.406Z,24.17
2023-10-05T16:35:41.827Z,23.65
2023-10-05T16:38:10.998Z,23.74
2023-10-05T16:40:40.860Z,23.91
2023-10-05T16:43:11.657Z,23.94
2023-10-05T16:45:41.027Z,23.85
2023-10-05T16:48:10.425Z,23.98
2023-10-05T16:50:39.420Z,23.51
2023-10-05T16:53:07.856Z,23.46
2023-10-05T16:55:36.393Z,23.69
2023-10-05T16:58:05.332Z,23.83
2023-10-05T17:00:36.648Z,23.51
2023-10-05T17:03:07.895Z,23.57
2023-10-05T17:05:39.139Z,23.66
2023-10-05T17:08:08.002Z,23.79
2023-10-05T17:10:36.420Z,23.54
2023-10-05T17:13:04.978Z,23.41
2023-10-05T17:15:35.060Z,23.54
2023-10-05T17:18:03.622Z,23.46
2023-10-05T17:20:32.090Z,23.42
2023-10-05T17:23:00.678Z,23.13
2023-10-05T17:25:29.350Z,22.70
2023-10-05T17:27:57.970Z,22.92
2023-10-05T17:30:26.737Z,23.06
2023-10-05T17:32:56.700Z,23.13
2023-10-05T17:35:25.200Z,23.10
2023-10-05T17:37:57.188Z,23.05
2023-10-05T17:40:25.735Z,22.93
2023-10-05T17:42:54.493Z,22.63
2023-10-05T17:45:22.976Z,22.52
2023-10-05T17:47:52.895Z,22.58
2023-10-05T17:50:22.761Z,22.21
2023-10-05T17:52:51.243Z,21.81
2023-10-05T17:55:19.618Z,21.21
2023-10-05T17:57:48.233Z,21.26
2023-10-05T18:00:17.982Z,21.56
2023-10-05T18:02:48.408Z,20.92
2023-10-05T18:05:17.740Z,21.46
2023-10-05T18:07:48.051Z,21.31
2023-10-05T18:10:17.889Z,21.35
2023-10-05T18:12:46.410Z,21.33
2023-10-05T18:15:17.068Z,21.35
2023-10-05T18:17:46.132Z,21.64
2023-10-05T18:20:16.259Z,21.87
2023-10-05T18:22:45.393Z,21.31
2023-10-05T18:25:19.082Z,21.16
2023-10-05T18:27:47.920Z,20.88
2023-10-05T18:30:16.296Z,20.67
2023-10-05T18:32:44.844Z,20.40
2023-10-05T18:35:13.730Z,20.32
2023-10-05T18:37:42.229Z,20.13
2023-10-05T18:40:12.307Z,20.15
2023-10-05T18:42:45.342Z,19.89
2023-10-05T18:45:15.390Z,19.92
2023-10-05T18:47:44.180Z,20.14
2023-10-05T18:50:14.166Z,20.13
2023-10-05T18:52:44.295Z,19.94
2023-10-05T18:55:13.118Z,20.01
2023-10-05T18:57:43.087Z,19.88
2023-10-05T19:00:12.366Z,19.68
2023-10-05T19:02:41.382Z,19.60
2023-10-05T19:05:11.730Z,19.51
2023-10-05T19:07:41.227Z,19.55
2023-10-05T19:10:12.217Z,19.67
2023-10-05T19:12:43.548Z,19.45
2023-10-05T19:15:15.065Z,19.62
2023-10-05T19:17:43.661Z,19.50
2023-10-05T19:20:12.667Z,19.67
2023-10-05T19:22:41.307Z,19.51
2023-10-05T19:25:09.974Z,19.43
2023-10-05T19:27:38.537Z,19.82
2023-10-05T19:30:14.635Z,19.66
2023-10-05T19:32:44.336Z,19.63
2023-10-05T19:35:13.945Z,19.44
2023-10-05T19:37:42.421Z,19.07
2023-10-05T19:40:11.686Z,19.37
2023-10-05T19:42:40.067Z,19.32
2023-10-05T19:45:11.993Z,19.41
2023-10-05T19:47:40.564Z,19.49
2023-10-05T19:50:10.056Z,19.43
2023-10-05T19:52:38.697Z,20.04
2023-10-05T19:55:07.534Z,20.18
2023-10-05T19:57:35.948Z,20.07
2023-10-05T20:00:11.874Z,19.86
2023-10-05T20:02:42.237Z,19.75
2023-10-05T20:05:11.565Z,19.67
2023-10-05T20:07:41.189Z,19.76
2023-10-05T20:10:10.204Z,19.62
2023-10-05T20:12:38.766Z,19.89
2023-10-05T20:15:08.264Z,20.06
2023-10-05T20:17:38.242Z,19.94
2023-10-05T20:20:13.058Z,19.88
2023-10-05T20:22:42.645Z,19.94
2023-10-05T20:25:12.805Z,19.86
2023-10-05T20:27:43.332Z,19.68
2023-10-05T20:30:12.971Z,19.77
2023-10-05T20:32:41.686Z,20.07
2023-10-05T20:35:13.060Z,20.14
2023-10-05T20:37:42.705Z,19.48
2023-10-05T20:40:12.525Z,19.54
2023-10-05T20:42:42.780Z,19.62
2023-10-05T20:45:12.565Z,19.89
2023-10-05T20:47:41.593Z,20.05
2023-10-05T20:50:12.743Z,20.16
2023-10-05T20:52:41.250Z,20.18
2023-10-05T20:55:10.491Z,19.96
2023-10-05T20:57:39.377Z,19.96
2023-10-05T21:00:10.079Z,19.91
2023-10-05T21:02:38.595Z,19.87
2023-10-05T21:05:07.567Z,19.77
2023-10-05T21:07:37.810Z,19.78
2023-10-05T21:10:07.332Z,19.28
2023-10-05T21:12:35.970Z,19.25
2023-10-05T21:15:05.159Z,19.00
2023-10-05T21:17:33.732Z,18.98
2023-10-05T21:20:02.876Z,18.66
2023-10-05T21:22:31.400Z,18.04
2023-10-05T21:25:01.268Z,18.39
2023-10-05T21:27:29.726Z,18.78
2023-10-05T21:29:58.483Z,18.67
2023-10-05T21:32:29.410Z,18.92
2023-10-05T21:34:58.826Z,18.63
2023-10-05T21:37:27.298Z,18.52
2023-10-05T21:39:55.864Z,18.54
2023-10-05T21:42:25.718Z,18.76
2023-10-05T21:44:56.749Z,18.80
2023-10-05T21:47:25.277Z,18.89
2023-10-05T21:49:53.896Z,18.88
2023-10-05T21:52:22.437Z,18.47
2023-10-05T21:54:50.863Z,18.68
2023-10-05T21:57:19.209Z,18.94
2023-10-05T21:59:49.094Z,18.95
2023-10-05T22:02:17.657Z,18.82
2023-10-05T22:04:46.343Z,18.55
2023-10-05T22:07:14.903Z,18.51
2023-10-05T22:09:43.516Z,18.69
2023-10-05T22:12:12.882Z,18.70
2023-10-05T22:14:41.288Z,18.62
2023-10-05T22:17:11.359Z,18.59
2023-10-05T22:19:44.384Z,18.64
2023-10-05T22:22:13.075Z,18.67
2023-10-05T22:24:42.338Z,18.63
2023-10-05T22:27:10.713Z,18.60
2023-10-05T22:29:39.233Z,18.59
2023-10-05T22:32:07.649Z,18.53
2023-10-05T22:34:37.563Z,18.64
2023-10-05T22:37:06.332Z,18.52
2023-10-05T22:39:34.733Z,18.49
2023-10-05T22:42:03.191Z,18.42
2023-10-05T22:44:31.625Z,18.46
2023-10-05T22:47:00.389Z,18.42
2023-10-05T22:49:47.173Z,18.47
2023-10-05T22:52:17.005Z,18.35
2023-10-05T22:54:45.785Z,18.32
2023-10-05T22:57:14.287Z,18.23
2023-10-05T22:59:44.363Z,17.33
2023-10-05T23:02:15.520Z,17.44
2023-10-05T23:04:44.305Z,17.78
2023-10-05T23:07:12.797Z,17.89
2023-10-05T23:09:45.618Z,17.97
2023-10-05T23:12:14.632Z,18.06
2023-10-05T23:14:49.926Z,18.13
2023-10-05T23:17:18.906Z,18.01
2023-10-05T23:19:47.666Z,17.63
2023-10-05T23:22:16.227Z,17.76
2023-10-05T23:24:47.582Z,17.92
2023-10-05T23:27:16.014Z,17.95
2023-10-05T23:29:44.553Z,17.60
2023-10-05T23:32:13.157Z,17.41
2023-10-05T23:34:43.062Z,17.75
2023-10-05T23:37:12.186Z,17.63
2023-10-05T23:39:41.648Z,17.69
2023-10-05T23:42:13.860Z,17.70
2023-10-05T23:44:47.846Z,17.73
2023-10-05T23:47:24.507Z,17.53
2023-10-05T23:49:54.806Z,17.59
2023-10-05T23:52:24.172Z,17.45
2023-10-05T23:54:53.430Z,17.27
2023-10-05T23:57:23.317Z,17.19
2023-10-05T23:59:52.833Z,17.01
